sensor_id;sensor_type;location;lat;lon;timestamp;P1;durP1;ratioP1;P2;durP2;ratioP2
1567;SDS011;777;47.156;8.326;2022-07-29T00:01:35;7.13;;;6.15;;
1567;SDS011;777;47.156;8.326;2022-07-29T00:04:02;6.55;;;5.85;;
1567;SDS011;777;47.156;8.326;2022-07-29T00:06:30;6.78;;;5.95;;
1567;SDS011;777;47.156;8.326;2022-07-29T00:08:57;6.10;;;5.57;;
1567;SDS011;777;47.156;8.326;2022-07-29T00:11:24;5.60;;;5.10;;
1567;SDS011;777;47.156;8.326;2022-07-29T00:13:51;6.60;;;5.55;;
1567;SDS011;777;47.156;8.326;2022-07-29T00:16:18;6.18;;;5.68;;
1567;SDS011;777;47.156;8.326;2022-07-29T00:18:45;8.07;;;6.18;;
1567;SDS011;777;47.156;8.326;2022-07-29T00:21:13;5.80;;;5.30;;
1567;SDS011;777;47.156;8.326;2022-07-29T00:23:41;6.80;;;5.57;;
1567;SDS011;777;47.156;8.326;2022-07-29T00:26:08;8.80;;;4.95;;
1567;SDS011;777;47.156;8.326;2022-07-29T00:28:35;7.53;;;5.32;;
1567;SDS011;777;47.156;8.326;2022-07-29T00:31:02;7.30;;;5.13;;
1567;SDS011;777;47.156;8.326;2022-07-29T00:33:29;6.10;;;4.80;;
1567;SDS011;777;47.156;8.326;2022-07-29T00:35:56;6.43;;;4.90;;
1567;SDS011;777;47.156;8.326;2022-07-29T00:38:22;5.70;;;5.20;;
1567;SDS011;777;47.156;8.326;2022-07-29T00:40:51;5.55;;;5.05;;
1567;SDS011;777;47.156;8.326;2022-07-29T00:43:18;5.18;;;4.75;;
1567;SDS011;777;47.156;8.326;2022-07-29T00:45:45;5.75;;;4.45;;
1567;SDS011;777;47.156;8.326;2022-07-29T00:48:13;7.40;;;4.60;;
1567;SDS011;777;47.156;8.326;2022-07-29T00:50:40;5.40;;;5.00;;
1567;SDS011;777;47.156;8.326;2022-07-29T00:53:07;4.82;;;4.40;;
1567;SDS011;777;47.156;8.326;2022-07-29T00:55:35;8.05;;;4.68;;
1567;SDS011;777;47.156;8.326;2022-07-29T00:58:04;5.13;;;4.55;;
1567;SDS011;777;47.156;8.326;2022-07-29T01:00:31;5.57;;;4.63;;
1567;SDS011;777;47.156;8.326;2022-07-29T01:02:59;8.25;;;5.25;;
1567;SDS011;777;47.156;8.326;2022-07-29T01:05:26;6.78;;;4.88;;
1567;SDS011;777;47.156;8.326;2022-07-29T01:07:55;5.93;;;4.80;;
1567;SDS011;777;47.156;8.326;2022-07-29T01:10:23;5.25;;;4.43;;
1567;SDS011;777;47.156;8.326;2022-07-29T01:12:52;7.95;;;4.90;;
1567;SDS011;777;47.156;8.326;2022-07-29T01:15:22;5.63;;;4.57;;
1567;SDS011;777;47.156;8.326;2022-07-29T01:17:52;5.97;;;5.35;;
1567;SDS011;777;47.156;8.326;2022-07-29T01:20:30;5.32;;;4.82;;
1567;SDS011;777;47.156;8.326;2022-07-29T01:23:27;6.95;;;5.18;;
1567;SDS011;777;47.156;8.326;2022-07-29T01:26:28;6.38;;;4.78;;
1567;SDS011;777;47.156;8.326;2022-07-29T01:29:14;5.05;;;4.65;;
1567;SDS011;777;47.156;8.326;2022-07-29T01:31:51;6.97;;;4.50;;
1567;SDS011;777;47.156;8.326;2022-07-29T01:34:31;5.32;;;4.38;;
1567;SDS011;777;47.156;8.326;2022-07-29T01:37:08;6.20;;;4.97;;
1567;SDS011;777;47.156;8.326;2022-07-29T01:42:10;5.28;;;4.78;;
1567;SDS011;777;47.156;8.326;2022-07-29T01:44:48;6.93;;;5.10;;
1567;SDS011;777;47.156;8.326;2022-07-29T01:47:23;8.23;;;4.70;;
1567;SDS011;777;47.156;8.326;2022-07-29T01:49:58;7.22;;;4.70;;
1567;SDS011;777;47.156;8.326;2022-07-29T01:52:27;5.22;;;4.50;;
1567;SDS011;777;47.156;8.326;2022-07-29T01:55:02;4.85;;;4.35;;
1567;SDS011;777;47.156;8.326;2022-07-29T01:57:34;4.80;;;4.38;;
1567;SDS011;777;47.156;8.326;2022-07-29T02:00:06;4.75;;;4.25;;
1567;SDS011;777;47.156;8.326;2022-07-29T02:02:41;4.60;;;4.20;;
1567;SDS011;777;47.156;8.326;2022-07-29T02:05:10;5.80;;;4.15;;
1567;SDS011;777;47.156;8.326;2022-07-29T02:07:40;7.55;;;3.95;;
1567;SDS011;777;47.156;8.326;2022-07-29T02:10:09;7.00;;;4.13;;
1567;SDS011;777;47.156;8.326;2022-07-29T02:12:40;7.55;;;4.07;;
1567;SDS011;777;47.156;8.326;2022-07-29T02:15:10;5.10;;;4.10;;
1567;SDS011;777;47.156;8.326;2022-07-29T02:17:39;5.78;;;4.05;;
1567;SDS011;777;47.156;8.326;2022-07-29T02:20:09;7.38;;;4.13;;
1567;SDS011;777;47.156;8.326;2022-07-29T02:22:37;4.68;;;4.05;;
1567;SDS011;777;47.156;8.326;2022-07-29T02:25:06;4.28;;;3.88;;
1567;SDS011;777;47.156;8.326;2022-07-29T02:27:35;4.35;;;3.92;;
1567;SDS011;777;47.156;8.326;2022-07-29T02:30:05;5.90;;;4.25;;
1567;SDS011;777;47.156;8.326;2022-07-29T02:32:36;5.05;;;3.80;;
1567;SDS011;777;47.156;8.326;2022-07-29T02:35:06;6.35;;;4.10;;
1567;SDS011;777;47.156;8.326;2022-07-29T02:37:35;4.72;;;4.07;;
1567;SDS011;777;47.156;8.326;2022-07-29T02:40:03;5.07;;;3.70;;
1567;SDS011;777;47.156;8.326;2022-07-29T02:42:32;8.57;;;3.92;;
1567;SDS011;777;47.156;8.326;2022-07-29T02:45:01;4.10;;;3.70;;
1567;SDS011;777;47.156;8.326;2022-07-29T02:47:30;5.78;;;4.30;;
1567;SDS011;777;47.156;8.326;2022-07-29T02:50:04;5.40;;;4.00;;
1567;SDS011;777;47.156;8.326;2022-07-29T02:52:34;4.20;;;3.63;;
1567;SDS011;777;47.156;8.326;2022-07-29T02:55:09;4.27;;;3.87;;
1567;SDS011;777;47.156;8.326;2022-07-29T02:57:42;4.72;;;3.97;;
1567;SDS011;777;47.156;8.326;2022-07-29T03:00:13;4.68;;;3.80;;
1567;SDS011;777;47.156;8.326;2022-07-29T03:02:42;4.20;;;3.80;;
1567;SDS011;777;47.156;8.326;2022-07-29T03:05:14;6.78;;;3.30;;
1567;SDS011;777;47.156;8.326;2022-07-29T03:07:45;3.55;;;3.00;;
1567;SDS011;777;47.156;8.326;2022-07-29T03:10:15;7.18;;;3.05;;
1567;SDS011;777;47.156;8.326;2022-07-29T03:12:43;3.70;;;2.90;;
1567;SDS011;777;47.156;8.326;2022-07-29T03:15:10;4.88;;;3.28;;
1567;SDS011;777;47.156;8.326;2022-07-29T03:17:38;4.22;;;2.80;;
1567;SDS011;777;47.156;8.326;2022-07-29T03:20:06;5.28;;;2.95;;
1567;SDS011;777;47.156;8.326;2022-07-29T03:22:39;4.07;;;2.90;;
1567;SDS011;777;47.156;8.326;2022-07-29T03:25:09;5.90;;;3.30;;
1567;SDS011;777;47.156;8.326;2022-07-29T03:27:37;4.32;;;2.88;;
1567;SDS011;777;47.156;8.326;2022-07-29T03:30:05;5.32;;;3.05;;
1567;SDS011;777;47.156;8.326;2022-07-29T03:32:33;3.03;;;2.70;;
1567;SDS011;777;47.156;8.326;2022-07-29T03:35:00;4.22;;;2.88;;
1567;SDS011;777;47.156;8.326;2022-07-29T03:37:27;7.10;;;2.78;;
1567;SDS011;777;47.156;8.326;2022-07-29T03:39:57;3.35;;;3.03;;
1567;SDS011;777;47.156;8.326;2022-07-29T03:42:26;3.30;;;2.78;;
1567;SDS011;777;47.156;8.326;2022-07-29T03:44:57;4.00;;;2.85;;
1567;SDS011;777;47.156;8.326;2022-07-29T03:47:27;4.50;;;2.90;;
1567;SDS011;777;47.156;8.326;2022-07-29T03:49:56;3.95;;;3.10;;
1567;SDS011;777;47.156;8.326;2022-07-29T03:52:28;6.47;;;3.20;;
1567;SDS011;777;47.156;8.326;2022-07-29T03:54:57;4.72;;;3.05;;
1567;SDS011;777;47.156;8.326;2022-07-29T03:57:24;3.33;;;2.95;;
1567;SDS011;777;47.156;8.326;2022-07-29T03:59:54;6.13;;;3.00;;
1567;SDS011;777;47.156;8.326;2022-07-29T04:02:21;4.13;;;3.33;;
1567;SDS011;777;47.156;8.326;2022-07-29T04:04:50;3.58;;;3.25;;
1567;SDS011;777;47.156;8.326;2022-07-29T04:07:18;4.38;;;3.97;;
1567;SDS011;777;47.156;8.326;2022-07-29T04:09:45;7.03;;;4.85;;
1567;SDS011;777;47.156;8.326;2022-07-29T04:12:14;8.88;;;6.00;;
1567;SDS011;777;47.156;8.326;2022-07-29T04:14:41;8.73;;;6.60;;
1567;SDS011;777;47.156;8.326;2022-07-29T04:17:08;7.43;;;6.68;;
1567;SDS011;777;47.156;8.326;2022-07-29T04:19:35;7.32;;;6.30;;
1567;SDS011;777;47.156;8.326;2022-07-29T04:22:02;9.18;;;6.80;;
1567;SDS011;777;47.156;8.326;2022-07-29T04:24:30;7.63;;;6.82;;
1567;SDS011;777;47.156;8.326;2022-07-29T04:26:57;11.15;;;6.45;;
1567;SDS011;777;47.156;8.326;2022-07-29T04:29:25;7.93;;;6.72;;
1567;SDS011;777;47.156;8.326;2022-07-29T04:31:52;7.13;;;6.47;;
1567;SDS011;777;47.156;8.326;2022-07-29T04:34:19;8.93;;;7.95;;
1567;SDS011;777;47.156;8.326;2022-07-29T04:36:46;9.88;;;7.88;;
1567;SDS011;777;47.156;8.326;2022-07-29T04:39:13;8.38;;;7.57;;
1567;SDS011;777;47.156;8.326;2022-07-29T04:41:43;8.52;;;7.80;;
1567;SDS011;777;47.156;8.326;2022-07-29T04:44:10;9.10;;;7.35;;
1567;SDS011;777;47.156;8.326;2022-07-29T04:46:38;9.13;;;7.32;;
1567;SDS011;777;47.156;8.326;2022-07-29T04:49:05;8.18;;;7.47;;
1567;SDS011;777;47.156;8.326;2022-07-29T04:51:33;7.60;;;6.90;;
1567;SDS011;777;47.156;8.326;2022-07-29T04:54:00;7.65;;;6.95;;
1567;SDS011;777;47.156;8.326;2022-07-29T04:56:27;7.70;;;6.75;;
1567;SDS011;777;47.156;8.326;2022-07-29T04:58:54;7.93;;;7.05;;
1567;SDS011;777;47.156;8.326;2022-07-29T05:01:21;7.93;;;6.78;;
1567;SDS011;777;47.156;8.326;2022-07-29T05:03:50;10.13;;;7.15;;
1567;SDS011;777;47.156;8.326;2022-07-29T05:06:17;8.18;;;6.65;;
1567;SDS011;777;47.156;8.326;2022-07-29T05:08:44;6.75;;;6.15;;
1567;SDS011;777;47.156;8.326;2022-07-29T05:11:11;7.15;;;6.07;;
1567;SDS011;777;47.156;8.326;2022-07-29T05:13:38;6.97;;;6.28;;
1567;SDS011;777;47.156;8.326;2022-07-29T05:16:06;8.15;;;5.50;;
1567;SDS011;777;47.156;8.326;2022-07-29T05:18:34;6.00;;;5.38;;
1567;SDS011;777;47.156;8.326;2022-07-29T05:21:03;6.10;;;5.50;;
1567;SDS011;777;47.156;8.326;2022-07-29T05:23:30;5.70;;;5.20;;
1567;SDS011;777;47.156;8.326;2022-07-29T05:25:57;5.95;;;5.45;;
1567;SDS011;777;47.156;8.326;2022-07-29T05:28:24;6.03;;;5.32;;
1567;SDS011;777;47.156;8.326;2022-07-29T05:30:51;5.85;;;4.88;;
1567;SDS011;777;47.156;8.326;2022-07-29T05:33:18;5.38;;;4.88;;
1567;SDS011;777;47.156;8.326;2022-07-29T05:35:45;4.65;;;4.18;;
1567;SDS011;777;47.156;8.326;2022-07-29T05:38:14;6.30;;;4.28;;
1567;SDS011;777;47.156;8.326;2022-07-29T05:40:41;6.13;;;4.30;;
1567;SDS011;777;47.156;8.326;2022-07-29T05:43:08;6.57;;;4.80;;
1567;SDS011;777;47.156;8.326;2022-07-29T05:45:35;6.85;;;5.15;;
1567;SDS011;777;47.156;8.326;2022-07-29T05:48:02;7.00;;;5.13;;
1567;SDS011;777;47.156;8.326;2022-07-29T05:50:30;5.45;;;4.60;;
1567;SDS011;777;47.156;8.326;2022-07-29T05:52:57;5.20;;;4.70;;
1567;SDS011;777;47.156;8.326;2022-07-29T05:55:25;5.07;;;4.30;;
1567;SDS011;777;47.156;8.326;2022-07-29T05:57:53;4.07;;;3.78;;
1567;SDS011;777;47.156;8.326;2022-07-29T06:00:20;5.20;;;4.18;;
1567;SDS011;777;47.156;8.326;2022-07-29T06:02:47;6.00;;;4.57;;
1567;SDS011;777;47.156;8.326;2022-07-29T06:05:14;6.90;;;5.85;;
1567;SDS011;777;47.156;8.326;2022-07-29T06:07:42;7.78;;;7.03;;
1567;SDS011;777;47.156;8.326;2022-07-29T06:10:09;10.15;;;7.47;;
1567;SDS011;777;47.156;8.326;2022-07-29T06:12:38;9.13;;;8.18;;
1567;SDS011;777;47.156;8.326;2022-07-29T06:15:05;7.68;;;6.75;;
1567;SDS011;777;47.156;8.326;2022-07-29T06:17:33;8.45;;;5.10;;
1567;SDS011;777;47.156;8.326;2022-07-29T06:20:00;6.57;;;4.20;;
1567;SDS011;777;47.156;8.326;2022-07-29T06:22:28;6.35;;;4.70;;
1567;SDS011;777;47.156;8.326;2022-07-29T06:24:55;6.75;;;4.32;;
1567;SDS011;777;47.156;8.326;2022-07-29T06:27:22;5.82;;;4.25;;
1567;SDS011;777;47.156;8.326;2022-07-29T06:29:50;8.15;;;4.32;;
1567;SDS011;777;47.156;8.326;2022-07-29T06:32:17;5.85;;;4.90;;
1567;SDS011;777;47.156;8.326;2022-07-29T06:34:44;7.90;;;5.72;;
1567;SDS011;777;47.156;8.326;2022-07-29T06:37:11;8.20;;;5.57;;
1567;SDS011;777;47.156;8.326;2022-07-29T06:39:39;6.13;;;5.03;;
1567;SDS011;777;47.156;8.326;2022-07-29T06:42:06;8.63;;;5.40;;
1567;SDS011;777;47.156;8.326;2022-07-29T06:44:34;8.20;;;5.30;;
1567;SDS011;777;47.156;8.326;2022-07-29T06:47:02;7.22;;;5.57;;
1567;SDS011;777;47.156;8.326;2022-07-29T06:49:30;6.57;;;4.95;;
1567;SDS011;777;47.156;8.326;2022-07-29T06:51:57;4.82;;;4.43;;
1567;SDS011;777;47.156;8.326;2022-07-29T06:54:24;4.60;;;4.10;;
1567;SDS011;777;47.156;8.326;2022-07-29T06:56:51;7.00;;;4.78;;
1567;SDS011;777;47.156;8.326;2022-07-29T06:59:18;5.68;;;4.80;;
1567;SDS011;777;47.156;8.326;2022-07-29T07:01:45;6.60;;;5.20;;
1567;SDS011;777;47.156;8.326;2022-07-29T07:04:14;7.60;;;4.78;;
1567;SDS011;777;47.156;8.326;2022-07-29T07:06:41;8.50;;;5.82;;
1567;SDS011;777;47.156;8.326;2022-07-29T07:09:08;10.35;;;6.82;;
1567;SDS011;777;47.156;8.326;2022-07-29T07:11:35;10.70;;;8.73;;
1567;SDS011;777;47.156;8.326;2022-07-29T07:14:02;17.27;;;9.80;;
1567;SDS011;777;47.156;8.326;2022-07-29T07:16:29;13.73;;;10.90;;
1567;SDS011;777;47.156;8.326;2022-07-29T07:18:57;13.35;;;11.98;;
1567;SDS011;777;47.156;8.326;2022-07-29T07:21:25;14.68;;;12.75;;
1567;SDS011;777;47.156;8.326;2022-07-29T07:23:52;14.57;;;13.07;;
1567;SDS011;777;47.156;8.326;2022-07-29T07:26:19;16.92;;;13.95;;
1567;SDS011;777;47.156;8.326;2022-07-29T07:28:47;15.48;;;13.88;;
1567;SDS011;777;47.156;8.326;2022-07-29T07:31:14;17.63;;;13.40;;
1567;SDS011;777;47.156;8.326;2022-07-29T07:33:41;13.73;;;12.32;;
1567;SDS011;777;47.156;8.326;2022-07-29T07:36:08;14.45;;;12.82;;
1567;SDS011;777;47.156;8.326;2022-07-29T07:38:36;14.38;;;12.10;;
1567;SDS011;777;47.156;8.326;2022-07-29T07:41:04;13.20;;;11.55;;
1567;SDS011;777;47.156;8.326;2022-07-29T07:43:31;10.93;;;9.82;;
1567;SDS011;777;47.156;8.326;2022-07-29T07:45:59;10.68;;;9.68;;
1567;SDS011;777;47.156;8.326;2022-07-29T07:48:26;10.10;;;9.10;;
1567;SDS011;777;47.156;8.326;2022-07-29T07:50:53;9.57;;;8.57;;
1567;SDS011;777;47.156;8.326;2022-07-29T07:53:20;9.52;;;8.27;;
1567;SDS011;777;47.156;8.326;2022-07-29T07:55:48;9.45;;;7.78;;
1567;SDS011;777;47.156;8.326;2022-07-29T07:58:15;8.38;;;6.95;;
1567;SDS011;777;47.156;8.326;2022-07-29T08:00:43;11.68;;;7.00;;
1567;SDS011;777;47.156;8.326;2022-07-29T08:03:10;8.57;;;7.43;;
1567;SDS011;777;47.156;8.326;2022-07-29T08:05:38;6.93;;;6.22;;
1567;SDS011;777;47.156;8.326;2022-07-29T08:08:05;7.82;;;6.25;;
1567;SDS011;777;47.156;8.326;2022-07-29T08:10:33;7.13;;;6.10;;
1567;SDS011;777;47.156;8.326;2022-07-29T08:13:19;6.68;;;6.07;;
1567;SDS011;777;47.156;8.326;2022-07-29T08:15:48;7.15;;;6.45;;
1567;SDS011;777;47.156;8.326;2022-07-29T08:18:22;6.65;;;5.28;;
1567;SDS011;777;47.156;8.326;2022-07-29T08:20:50;5.05;;;4.55;;
1567;SDS011;777;47.156;8.326;2022-07-29T08:23:17;5.00;;;4.50;;
1567;SDS011;777;47.156;8.326;2022-07-29T08:25:45;6.57;;;4.93;;
1567;SDS011;777;47.156;8.326;2022-07-29T08:28:12;4.80;;;4.18;;
1567;SDS011;777;47.156;8.326;2022-07-29T08:30:40;5.05;;;3.90;;
1567;SDS011;777;47.156;8.326;2022-07-29T08:33:08;4.85;;;4.07;;
1567;SDS011;777;47.156;8.326;2022-07-29T08:35:35;6.63;;;4.03;;
1567;SDS011;777;47.156;8.326;2022-07-29T08:38:02;5.10;;;3.92;;
1567;SDS011;777;47.156;8.326;2022-07-29T08:40:29;5.82;;;3.80;;
1567;SDS011;777;47.156;8.326;2022-07-29T08:42:56;7.03;;;4.40;;
1567;SDS011;777;47.156;8.326;2022-07-29T08:45:24;6.80;;;5.18;;
1567;SDS011;777;47.156;8.326;2022-07-29T08:47:54;8.73;;;5.03;;
1567;SDS011;777;47.156;8.326;2022-07-29T08:50:22;6.18;;;5.57;;
1567;SDS011;777;47.156;8.326;2022-07-29T08:52:49;8.63;;;7.82;;
1567;SDS011;777;47.156;8.326;2022-07-29T08:55:17;6.00;;;5.43;;
1567;SDS011;777;47.156;8.326;2022-07-29T08:57:45;5.82;;;4.63;;
1567;SDS011;777;47.156;8.326;2022-07-29T09:00:12;6.10;;;4.88;;
1567;SDS011;777;47.156;8.326;2022-07-29T09:02:43;6.25;;;5.35;;
1567;SDS011;777;47.156;8.326;2022-07-29T09:05:15;5.75;;;4.60;;
1567;SDS011;777;47.156;8.326;2022-07-29T09:07:42;6.82;;;4.88;;
1567;SDS011;777;47.156;8.326;2022-07-29T09:10:13;6.57;;;5.10;;
1567;SDS011;777;47.156;8.326;2022-07-29T09:12:40;6.78;;;5.10;;
1567;SDS011;777;47.156;8.326;2022-07-29T09:15:07;8.10;;;4.82;;
1567;SDS011;777;47.156;8.326;2022-07-29T09:17:42;6.13;;;4.97;;
1567;SDS011;777;47.156;8.326;2022-07-29T09:20:10;7.68;;;5.00;;
1567;SDS011;777;47.156;8.326;2022-07-29T09:22:41;7.82;;;5.20;;
1567;SDS011;777;47.156;8.326;2022-07-29T09:25:08;6.20;;;5.32;;
1567;SDS011;777;47.156;8.326;2022-07-29T09:27:38;5.68;;;4.72;;
1567;SDS011;777;47.156;8.326;2022-07-29T09:30:06;5.55;;;4.65;;
1567;SDS011;777;47.156;8.326;2022-07-29T09:35:22;5.70;;;4.43;;
1567;SDS011;777;47.156;8.326;2022-07-29T09:37:52;6.82;;;4.63;;
1567;SDS011;777;47.156;8.326;2022-07-29T09:40:20;4.25;;;3.72;;
1567;SDS011;777;47.156;8.326;2022-07-29T09:42:48;4.70;;;3.90;;
1567;SDS011;777;47.156;8.326;2022-07-29T09:45:25;3.90;;;3.60;;
1567;SDS011;777;47.156;8.326;2022-07-29T09:47:54;5.15;;;3.83;;
1567;SDS011;777;47.156;8.326;2022-07-29T09:50:34;6.43;;;4.30;;
1567;SDS011;777;47.156;8.326;2022-07-29T09:53:03;4.63;;;4.00;;
1567;SDS011;777;47.156;8.326;2022-07-29T09:55:30;4.00;;;3.60;;
1567;SDS011;777;47.156;8.326;2022-07-29T10:00:44;3.58;;;3.28;;
1567;SDS011;777;47.156;8.326;2022-07-29T10:03:12;3.75;;;2.53;;
1567;SDS011;777;47.156;8.326;2022-07-29T10:05:39;5.97;;;2.78;;
1567;SDS011;777;47.156;8.326;2022-07-29T10:08:08;3.30;;;2.85;;
1567;SDS011;777;47.156;8.326;2022-07-29T10:10:38;3.83;;;2.30;;
1567;SDS011;777;47.156;8.326;2022-07-29T10:13:07;3.33;;;1.55;;
1567;SDS011;777;47.156;8.326;2022-07-29T10:15:36;4.65;;;2.42;;
1567;SDS011;777;47.156;8.326;2022-07-29T10:18:06;2.95;;;2.22;;
1567;SDS011;777;47.156;8.326;2022-07-29T10:20:34;4.57;;;2.35;;
1567;SDS011;777;47.156;8.326;2022-07-29T10:23:02;2.15;;;1.80;;
1567;SDS011;777;47.156;8.326;2022-07-29T10:25:31;2.83;;;2.28;;
1567;SDS011;777;47.156;8.326;2022-07-29T10:27:58;2.42;;;1.77;;
1567;SDS011;777;47.156;8.326;2022-07-29T10:30:25;2.58;;;1.92;;
1567;SDS011;777;47.156;8.326;2022-07-29T10:32:54;4.57;;;1.90;;
1567;SDS011;777;47.156;8.326;2022-07-29T10:35:48;3.15;;;1.90;;
1567;SDS011;777;47.156;8.326;2022-07-29T10:38:28;4.38;;;1.88;;
1567;SDS011;777;47.156;8.326;2022-07-29T10:41:09;1.95;;;1.75;;
1567;SDS011;777;47.156;8.326;2022-07-29T10:43:54;3.67;;;1.92;;
1567;SDS011;777;47.156;8.326;2022-07-29T10:46:24;2.80;;;1.83;;
1567;SDS011;777;47.156;8.326;2022-07-29T10:49:08;2.55;;;1.95;;
1567;SDS011;777;47.156;8.326;2022-07-29T10:54:36;2.85;;;2.10;;
1567;SDS011;777;47.156;8.326;2022-07-29T10:57:13;4.35;;;2.88;;
1567;SDS011;777;47.156;8.326;2022-07-29T10:59:47;3.45;;;3.03;;
1567;SDS011;777;47.156;8.326;2022-07-29T11:05:09;6.82;;;5.47;;
1567;SDS011;777;47.156;8.326;2022-07-29T11:07:38;9.50;;;4.80;;
1567;SDS011;777;47.156;8.326;2022-07-29T11:10:19;7.07;;;3.38;;
1567;SDS011;777;47.156;8.326;2022-07-29T11:12:49;3.00;;;2.50;;
1567;SDS011;777;47.156;8.326;2022-07-29T11:15:18;2.95;;;2.55;;
1567;SDS011;777;47.156;8.326;2022-07-29T11:18:06;3.10;;;2.00;;
1567;SDS011;777;47.156;8.326;2022-07-29T11:20:35;4.05;;;1.98;;
1567;SDS011;777;47.156;8.326;2022-07-29T11:23:20;2.78;;;1.70;;
1567;SDS011;777;47.156;8.326;2022-07-29T11:28:53;2.92;;;2.20;;
1567;SDS011;777;47.156;8.326;2022-07-29T11:31:33;3.15;;;2.00;;
1567;SDS011;777;47.156;8.326;2022-07-29T11:34:16;3.90;;;2.20;;
1567;SDS011;777;47.156;8.326;2022-07-29T11:39:44;4.55;;;2.80;;
1567;SDS011;777;47.156;8.326;2022-07-29T11:45:07;2.65;;;2.38;;
1567;SDS011;777;47.156;8.326;2022-07-29T11:47:36;3.00;;;1.98;;
1567;SDS011;777;47.156;8.326;2022-07-29T11:50:06;4.68;;;2.03;;
1567;SDS011;777;47.156;8.326;2022-07-29T11:52:35;4.63;;;2.15;;
1567;SDS011;777;47.156;8.326;2022-07-29T11:55:08;4.90;;;2.33;;
1567;SDS011;777;47.156;8.326;2022-07-29T11:57:44;2.85;;;2.25;;
1567;SDS011;777;47.156;8.326;2022-07-29T12:00:22;3.13;;;2.30;;
1567;SDS011;777;47.156;8.326;2022-07-29T12:02:52;5.75;;;3.20;;
1567;SDS011;777;47.156;8.326;2022-07-29T12:05:20;4.22;;;3.50;;
1567;SDS011;777;47.156;8.326;2022-07-29T12:07:58;3.28;;;2.90;;
1567;SDS011;777;47.156;8.326;2022-07-29T12:10:31;4.90;;;2.88;;
1567;SDS011;777;47.156;8.326;2022-07-29T12:12:59;3.90;;;2.60;;
1567;SDS011;777;47.156;8.326;2022-07-29T12:15:27;5.97;;;5.28;;
1567;SDS011;777;47.156;8.326;2022-07-29T12:17:54;6.63;;;4.65;;
1567;SDS011;777;47.156;8.326;2022-07-29T12:20:22;7.05;;;5.28;;
1567;SDS011;777;47.156;8.326;2022-07-29T12:22:51;7.20;;;6.43;;
1567;SDS011;777;47.156;8.326;2022-07-29T12:25:20;11.98;;;5.95;;
1567;SDS011;777;47.156;8.326;2022-07-29T12:27:57;7.43;;;5.45;;
1567;SDS011;777;47.156;8.326;2022-07-29T12:30:35;6.72;;;5.60;;
1567;SDS011;777;47.156;8.326;2022-07-29T12:33:11;7.80;;;7.00;;
1567;SDS011;777;47.156;8.326;2022-07-29T12:35:40;8.05;;;6.50;;
1567;SDS011;777;47.156;8.326;2022-07-29T12:38:09;8.45;;;6.43;;
1567;SDS011;777;47.156;8.326;2022-07-29T12:40:37;6.85;;;6.10;;
1567;SDS011;777;47.156;8.326;2022-07-29T12:43:05;7.63;;;5.65;;
1567;SDS011;777;47.156;8.326;2022-07-29T12:45:37;7.88;;;5.97;;
1567;SDS011;777;47.156;8.326;2022-07-29T12:48:06;7.15;;;6.45;;
1567;SDS011;777;47.156;8.326;2022-07-29T12:50:35;8.68;;;6.57;;
1567;SDS011;777;47.156;8.326;2022-07-29T12:53:09;7.93;;;6.68;;
1567;SDS011;777;47.156;8.326;2022-07-29T12:55:37;9.70;;;8.02;;
1567;SDS011;777;47.156;8.326;2022-07-29T12:58:06;8.65;;;7.53;;
1567;SDS011;777;47.156;8.326;2022-07-29T13:00:33;8.65;;;7.68;;
1567;SDS011;777;47.156;8.326;2022-07-29T13:03:02;8.75;;;7.38;;
1567;SDS011;777;47.156;8.326;2022-07-29T13:05:40;7.65;;;6.85;;
1567;SDS011;777;47.156;8.326;2022-07-29T13:08:12;6.53;;;5.25;;
1567;SDS011;777;47.156;8.326;2022-07-29T13:10:41;6.28;;;5.60;;
1567;SDS011;777;47.156;8.326;2022-07-29T13:13:09;5.50;;;4.75;;
1567;SDS011;777;47.156;8.326;2022-07-29T13:15:38;6.88;;;4.63;;
1567;SDS011;777;47.156;8.326;2022-07-29T13:20:55;4.90;;;4.28;;
1567;SDS011;777;47.156;8.326;2022-07-29T13:23:22;5.35;;;3.50;;
1567;SDS011;777;47.156;8.326;2022-07-29T13:25:49;4.72;;;3.78;;
1567;SDS011;777;47.156;8.326;2022-07-29T13:28:16;4.78;;;3.78;;
1567;SDS011;777;47.156;8.326;2022-07-29T13:30:44;5.43;;;3.60;;
1567;SDS011;777;47.156;8.326;2022-07-29T13:33:11;5.40;;;3.50;;
1567;SDS011;777;47.156;8.326;2022-07-29T13:35:41;4.75;;;3.95;;
1567;SDS011;777;47.156;8.326;2022-07-29T13:38:08;5.30;;;3.70;;
1567;SDS011;777;47.156;8.326;2022-07-29T13:40:36;5.82;;;4.07;;
1567;SDS011;777;47.156;8.326;2022-07-29T13:43:03;5.88;;;3.90;;
1567;SDS011;777;47.156;8.326;2022-07-29T13:45:30;5.45;;;3.58;;
1567;SDS011;777;47.156;8.326;2022-07-29T13:47:57;4.40;;;3.80;;
1567;SDS011;777;47.156;8.326;2022-07-29T13:50:24;4.28;;;3.88;;
1567;SDS011;777;47.156;8.326;2022-07-29T13:52:53;4.38;;;3.72;;
1567;SDS011;777;47.156;8.326;2022-07-29T13:55:20;6.72;;;4.15;;
1567;SDS011;777;47.156;8.326;2022-07-29T13:57:47;7.13;;;3.50;;
1567;SDS011;777;47.156;8.326;2022-07-29T14:00:14;4.70;;;3.38;;
1567;SDS011;777;47.156;8.326;2022-07-29T14:02:42;4.88;;;3.17;;
1567;SDS011;777;47.156;8.326;2022-07-29T14:05:09;5.05;;;3.70;;
1567;SDS011;777;47.156;8.326;2022-07-29T14:07:36;7.40;;;3.67;;
1567;SDS011;777;47.156;8.326;2022-07-29T14:10:06;4.47;;;3.33;;
1567;SDS011;777;47.156;8.326;2022-07-29T14:12:34;5.53;;;3.20;;
1567;SDS011;777;47.156;8.326;2022-07-29T14:15:01;5.07;;;3.53;;
1567;SDS011;777;47.156;8.326;2022-07-29T14:17:28;8.20;;;4.85;;
1567;SDS011;777;47.156;8.326;2022-07-29T14:19:56;14.15;;;6.47;;
1567;SDS011;777;47.156;8.326;2022-07-29T14:22:23;26.15;;;8.57;;
1567;SDS011;777;47.156;8.326;2022-07-29T14:24:50;16.40;;;9.50;;
1567;SDS011;777;47.156;8.326;2022-07-29T14:27:19;10.70;;;9.45;;
1567;SDS011;777;47.156;8.326;2022-07-29T14:29:46;12.48;;;11.02;;
1567;SDS011;777;47.156;8.326;2022-07-29T14:32:13;13.57;;;11.43;;
1567;SDS011;777;47.156;8.326;2022-07-29T14:34:41;10.73;;;9.30;;
1567;SDS011;777;47.156;8.326;2022-07-29T14:37:08;11.23;;;9.10;;
1567;SDS011;777;47.156;8.326;2022-07-29T14:39:35;9.13;;;6.18;;
1567;SDS011;777;47.156;8.326;2022-07-29T14:42:02;7.82;;;6.53;;
1567;SDS011;777;47.156;8.326;2022-07-29T14:44:31;8.35;;;6.50;;
1567;SDS011;777;47.156;8.326;2022-07-29T14:46:58;6.90;;;5.43;;
1567;SDS011;777;47.156;8.326;2022-07-29T14:49:25;5.57;;;4.43;;
1567;SDS011;777;47.156;8.326;2022-07-29T14:51:52;5.25;;;4.20;;
1567;SDS011;777;47.156;8.326;2022-07-29T14:54:20;4.30;;;3.90;;
1567;SDS011;777;47.156;8.326;2022-07-29T14:56:47;3.95;;;3.65;;
1567;SDS011;777;47.156;8.326;2022-07-29T14:59:16;6.82;;;4.40;;
1567;SDS011;777;47.156;8.326;2022-07-29T15:01:45;6.28;;;4.10;;
1567;SDS011;777;47.156;8.326;2022-07-29T15:04:12;5.55;;;4.88;;
1567;SDS011;777;47.156;8.326;2022-07-29T15:06:39;5.88;;;5.15;;
1567;SDS011;777;47.156;8.326;2022-07-29T15:09:06;7.88;;;5.82;;
1567;SDS011;777;47.156;8.326;2022-07-29T15:11:34;6.32;;;5.70;;
1567;SDS011;777;47.156;8.326;2022-07-29T15:14:01;7.20;;;6.45;;
1567;SDS011;777;47.156;8.326;2022-07-29T15:16:28;7.78;;;5.72;;
1567;SDS011;777;47.156;8.326;2022-07-29T15:18:56;7.60;;;6.47;;
1567;SDS011;777;47.156;8.326;2022-07-29T15:21:23;5.75;;;5.15;;
1567;SDS011;777;47.156;8.326;2022-07-29T15:23:51;7.15;;;6.45;;
1567;SDS011;777;47.156;8.326;2022-07-29T15:26:18;6.53;;;5.55;;
1567;SDS011;777;47.156;8.326;2022-07-29T15:28:45;6.13;;;3.42;;
1567;SDS011;777;47.156;8.326;2022-07-29T15:31:12;4.15;;;3.75;;
1567;SDS011;777;47.156;8.326;2022-07-29T15:33:39;4.20;;;3.75;;
1567;SDS011;777;47.156;8.326;2022-07-29T15:36:08;4.57;;;4.00;;
1567;SDS011;777;47.156;8.326;2022-07-29T15:38:36;4.30;;;3.47;;
1567;SDS011;777;47.156;8.326;2022-07-29T15:41:05;4.43;;;3.72;;
1567;SDS011;777;47.156;8.326;2022-07-29T15:43:32;4.10;;;3.50;;
1567;SDS011;777;47.156;8.326;2022-07-29T15:46:00;4.45;;;3.70;;
1567;SDS011;777;47.156;8.326;2022-07-29T15:48:45;5.55;;;3.92;;
1567;SDS011;777;47.156;8.326;2022-07-29T15:51:13;5.22;;;4.32;;
1567;SDS011;777;47.156;8.326;2022-07-29T15:53:40;5.03;;;4.13;;
1567;SDS011;777;47.156;8.326;2022-07-29T15:56:07;5.70;;;4.85;;
1567;SDS011;777;47.156;8.326;2022-07-29T15:58:34;8.13;;;6.03;;
1567;SDS011;777;47.156;8.326;2022-07-29T16:01:01;7.55;;;5.90;;
1567;SDS011;777;47.156;8.326;2022-07-29T16:03:28;7.30;;;5.85;;
1567;SDS011;777;47.156;8.326;2022-07-29T16:05:56;6.28;;;5.68;;